PWSweather.com
Personal Weather Stations
Station Observations
KJ4AJP
Beautiful Downtown Gardner, Martin, TN 38237

Beautiful Downtown GardnerMartin, TN 38237

Lat: 36.358, Lon: -88.8994

Elevation: 384.3

Station Type: TP1080WC

http://weather.mambm.com/

Latest ConditionsUpdated 4:30:00 PM CST Saturday, Dec 16, 2017
Currently Today's Max Today's Min Today's Average
Temperature 49.1°F9.5°C 55.6°F13.1°C 28.9°F-1.7°C 39.7°F4.3°C
Dew Point 38.2°F3.4°C 41.9°F5.5°C 28.0°F-2.2°C 34.3°F1.3°C
Winds 1.6 mph S2.6 kmh S 10.7 mph SSW17.2 kmh SSW - 4.2 mph 6.8 kmh
Wind Gusts 4.5 mph7.2 kmh 18.3 mph29.5 kmh - -
Humidity 66% 97% 60% 83%
Pressure 30.12 in1020.0 mb 30.20 in1022.7 mb 30.10 in1019.3 mb -
Hour Temp Dew Point Humidity Winds Wind Gusts Pressure Precip Precip Rate Daily Precip Total
04:30 PM 49.1°F9.5°C 38.2°F3.4°C 66% 1.6 mph S2.6 kmh S 4.5 mph7.2 kmh 30.12 in1020.0 mb 0.00 in0.0 mm 0.00 in0.0 mm 0.00 in0.0 mm
04:15 PM 50.5°F10.3°C 39.2°F4.0°C 65% 3.1 mph S5.0 kmh S 6.9 mph11.1 kmh 30.12 in1020.0 mb 0.00 in0.0 mm 0.00 in0.0 mm 0.00 in0.0 mm
04:00 PM 51.3°F10.7°C 39.9°F4.4°C 65% 0.7 mph S1.1 kmh S 8.3 mph13.4 kmh 30.12 in1020.0 mb 0.00 in0.0 mm 0.00 in0.0 mm 0.00 in0.0 mm
03:45 PM 51.8°F11.0°C 40.0°F4.4°C 64% 2.2 mph S3.5 kmh S 8.3 mph13.4 kmh 30.12 in1020.0 mb 0.00 in0.0 mm 0.00 in0.0 mm 0.00 in0.0 mm
03:30 PM 52.5°F11.4°C 40.3°F4.6°C 63% 5.4 mph SSW8.7 kmh SSW 10.7 mph17.2 kmh 30.11 in1019.6 mb 0.00 in0.0 mm 0.00 in0.0 mm 0.00 in0.0 mm
03:15 PM 53.2°F11.8°C 40.1°F4.5°C 61% 5.4 mph S8.7 kmh S 10.7 mph17.2 kmh 30.10 in1019.3 mb 0.00 in0.0 mm 0.00 in0.0 mm 0.00 in0.0 mm
03:00 PM 54.3°F12.4°C 40.7°F4.8°C 60% 5.4 mph S8.7 kmh S 12.1 mph19.5 kmh 30.10 in1019.3 mb 0.00 in0.0 mm 0.00 in0.0 mm 0.00 in0.0 mm
02:45 PM 55.0°F12.8°C 41.4°F5.2°C 60% 5.4 mph S8.7 kmh S 13.0 mph20.9 kmh 30.11 in1019.6 mb 0.00 in0.0 mm 0.00 in0.0 mm 0.00 in0.0 mm
02:30 PM 55.6°F13.1°C 41.9°F5.5°C 60% 9.2 mph SSW14.8 kmh SSW 14.5 mph23.3 kmh 30.11 in1019.6 mb 0.00 in0.0 mm 0.00 in0.0 mm 0.00 in0.0 mm
02:15 PM 55.6°F13.1°C 41.9°F5.5°C 60% 3.1 mph S5.0 kmh S 14.5 mph23.3 kmh 30.10 in1019.3 mb 0.00 in0.0 mm 0.00 in0.0 mm 0.00 in0.0 mm
02:00 PM 55.0°F12.8°C 41.8°F5.4°C 61% 3.8 mph SSW6.1 kmh SSW 13.0 mph20.9 kmh 30.10 in1019.3 mb 0.00 in0.0 mm 0.00 in0.0 mm 0.00 in0.0 mm
01:45 PM 54.9°F12.7°C 41.7°F5.4°C 61% 6.0 mph SW9.7 kmh SW 15.2 mph24.5 kmh 30.11 in1019.6 mb 0.00 in0.0 mm 0.00 in0.0 mm 0.00 in0.0 mm
01:30 PM 54.3°F12.4°C 41.6°F5.3°C 62% 7.6 mph S12.2 kmh S 14.5 mph23.3 kmh 30.11 in1019.6 mb 0.00 in0.0 mm 0.00 in0.0 mm 0.00 in0.0 mm
01:15 PM 54.1°F12.3°C 41.4°F5.2°C 62% 3.8 mph S6.1 kmh S 13.6 mph21.9 kmh 30.11 in1019.6 mb 0.00 in0.0 mm 0.00 in0.0 mm 0.00 in0.0 mm
01:00 PM 54.1°F12.3°C 41.4°F5.2°C 62% 6.0 mph SSW9.7 kmh SSW 15.9 mph25.6 kmh 30.14 in1020.7 mb 0.00 in0.0 mm 0.00 in0.0 mm 0.00 in0.0 mm
12:45 PM 53.1°F11.7°C 41.2°F5.1°C 64% 3.1 mph SW5.0 kmh SW 16.8 mph27.0 kmh 30.14 in1020.7 mb 0.00 in0.0 mm 0.00 in0.0 mm 0.00 in0.0 mm
12:30 PM 52.0°F11.1°C 40.6°F4.8°C 65% 3.1 mph SW5.0 kmh SW 14.5 mph23.3 kmh 30.14 in1020.7 mb 0.00 in0.0 mm 0.00 in0.0 mm 0.00 in0.0 mm
12:15 PM 52.5°F11.4°C 40.7°F4.8°C 64% 5.4 mph SW8.7 kmh SW 15.9 mph25.6 kmh 30.14 in1020.7 mb 0.00 in0.0 mm 0.00 in0.0 mm 0.00 in0.0 mm
12:00 PM 52.0°F11.1°C 40.6°F4.8°C 65% 10.7 mph SW17.2 kmh SW 15.9 mph25.6 kmh 30.15 in1021.0 mb 0.00 in0.0 mm 0.00 in0.0 mm 0.00 in0.0 mm
11:45 AM 51.3°F10.7°C 40.3°F4.6°C 66% 10.7 mph SSW17.2 kmh SSW 18.3 mph29.5 kmh 30.16 in1021.3 mb 0.00 in0.0 mm 0.00 in0.0 mm 0.00 in0.0 mm
11:30 AM 50.9°F10.5°C 40.7°F4.8°C 68% 6.9 mph SW11.1 kmh SW 15.9 mph25.6 kmh 30.17 in1021.7 mb 0.00 in0.0 mm 0.00 in0.0 mm 0.00 in0.0 mm
11:15 AM 50.2°F10.1°C 40.4°F4.7°C 69% 6.9 mph SW11.1 kmh SW 15.2 mph24.5 kmh 30.17 in1021.7 mb 0.00 in0.0 mm 0.00 in0.0 mm 0.00 in0.0 mm
11:00 AM 49.3°F9.6°C 41.0°F5.0°C 73% 8.3 mph SSW13.4 kmh SSW 15.2 mph24.5 kmh 30.18 in1022.0 mb 0.00 in0.0 mm 0.00 in0.0 mm 0.00 in0.0 mm
10:45 AM 47.5°F8.6°C 40.6°F4.8°C 77% 5.4 mph SSW8.7 kmh SSW 11.4 mph18.3 kmh 30.18 in1022.0 mb 0.00 in0.0 mm 0.00 in0.0 mm 0.00 in0.0 mm
10:30 AM 46.0°F7.8°C 39.6°F4.2°C 78% 7.6 mph S12.2 kmh S 12.1 mph19.5 kmh 30.19 in1022.4 mb 0.00 in0.0 mm 0.00 in0.0 mm 0.00 in0.0 mm
10:15 AM 44.6°F7.0°C 39.1°F3.9°C 81% 3.1 mph SSW5.0 kmh SSW 13.6 mph21.9 kmh 30.19 in1022.4 mb 0.00 in0.0 mm 0.00 in0.0 mm 0.00 in0.0 mm
10:00 AM 43.3°F6.3°C 38.5°F3.6°C 83% 6.0 mph SW9.7 kmh SW 10.7 mph17.2 kmh 30.20 in1022.7 mb 0.00 in0.0 mm 0.00 in0.0 mm 0.00 in0.0 mm
09:45 AM 42.1°F5.6°C 37.9°F3.3°C 85% 3.8 mph S6.1 kmh S 10.7 mph17.2 kmh 30.19 in1022.4 mb 0.00 in0.0 mm 0.00 in0.0 mm 0.00 in0.0 mm
09:30 AM 40.8°F4.9°C 37.3°F2.9°C 87% 2.2 mph SSW3.5 kmh SSW 9.2 mph14.8 kmh 30.19 in1022.4 mb 0.00 in0.0 mm 0.00 in0.0 mm 0.00 in0.0 mm
09:15 AM 39.9°F4.4°C 36.7°F2.6°C 88% 2.2 mph SSW3.5 kmh SSW 6.9 mph11.1 kmh 30.19 in1022.4 mb 0.00 in0.0 mm 0.00 in0.0 mm 0.00 in0.0 mm
09:00 AM 38.7°F3.7°C 36.0°F2.2°C 90% 3.8 mph SSW6.1 kmh SSW 12.1 mph19.5 kmh 30.18 in1022.0 mb 0.00 in0.0 mm 0.00 in0.0 mm 0.00 in0.0 mm
08:45 AM 37.0°F2.8°C 34.9°F1.6°C 92% 5.4 mph S8.7 kmh S 10.7 mph17.2 kmh 30.17 in1021.7 mb 0.00 in0.0 mm 0.00 in0.0 mm 0.00 in0.0 mm
08:30 AM 35.4°F1.9°C 33.9°F1.1°C 94% 6.9 mph S11.1 kmh S 11.4 mph18.3 kmh 30.18 in1022.0 mb 0.00 in0.0 mm 0.00 in0.0 mm 0.00 in0.0 mm
08:15 AM 34.2°F1.2°C 32.9°F0.5°C 95% 4.5 mph S7.2 kmh S 12.1 mph19.5 kmh 30.18 in1022.0 mb 0.00 in0.0 mm 0.00 in0.0 mm 0.00 in0.0 mm
08:00 AM 32.7°F0.4°C 32.0°F0.0°C 97% 6.9 mph S11.1 kmh S 10.7 mph17.2 kmh 30.17 in1021.7 mb 0.00 in0.0 mm 0.00 in0.0 mm 0.00 in0.0 mm
07:45 AM 30.7°F-0.7°C 30.0°F-1.1°C 97% 6.0 mph S9.7 kmh S 9.2 mph14.8 kmh 30.17 in1021.7 mb 0.00 in0.0 mm 0.00 in0.0 mm 0.00 in0.0 mm
07:30 AM 29.7°F-1.3°C 28.9°F-1.7°C 97% 4.5 mph S7.2 kmh S 8.3 mph13.4 kmh 30.17 in1021.7 mb 0.00 in0.0 mm 0.00 in0.0 mm 0.00 in0.0 mm
07:15 AM 28.9°F-1.7°C 28.0°F-2.2°C 96% 3.8 mph S6.1 kmh S 6.9 mph11.1 kmh 30.16 in1021.3 mb 0.00 in0.0 mm 0.00 in0.0 mm 0.00 in0.0 mm
07:00 AM 29.3°F-1.5°C 28.3°F-2.1°C 96% 3.1 mph S5.0 kmh S 6.9 mph11.1 kmh 30.16 in1021.3 mb 0.00 in0.0 mm 0.00 in0.0 mm 0.00 in0.0 mm
06:45 AM 29.7°F-1.3°C 28.7°F-1.8°C 96% 2.2 mph S3.5 kmh S 6.0 mph9.7 kmh 30.16 in1021.3 mb 0.00 in0.0 mm 0.00 in0.0 mm 0.00 in0.0 mm
06:30 AM 30.0°F-1.1°C 29.0°F-1.7°C 96% 3.1 mph S5.0 kmh S 7.6 mph12.2 kmh 30.15 in1021.0 mb 0.00 in0.0 mm 0.00 in0.0 mm 0.00 in0.0 mm
06:15 AM 29.8°F-1.2°C 28.9°F-1.7°C 96% 3.8 mph S6.1 kmh S 6.9 mph11.1 kmh 30.15 in1021.0 mb 0.00 in0.0 mm 0.00 in0.0 mm 0.00 in0.0 mm
06:00 AM 29.8°F-1.2°C 28.9°F-1.7°C 96% 3.8 mph S6.1 kmh S 7.6 mph12.2 kmh 30.15 in1021.0 mb 0.00 in0.0 mm 0.00 in0.0 mm 0.00 in0.0 mm
05:45 AM 29.7°F-1.3°C 28.7°F-1.8°C 96% 3.8 mph S6.1 kmh S 6.9 mph11.1 kmh 30.15 in1021.0 mb 0.00 in0.0 mm 0.00 in0.0 mm 0.00 in0.0 mm
05:30 AM 30.0°F-1.1°C 29.0°F-1.7°C 96% 3.1 mph S5.0 kmh S 6.0 mph9.7 kmh 30.15 in1021.0 mb 0.00 in0.0 mm 0.00 in0.0 mm 0.00 in0.0 mm
05:15 AM 30.0°F-1.1°C 29.0°F-1.7°C 96% 3.1 mph S5.0 kmh S 6.9 mph11.1 kmh 30.15 in1021.0 mb 0.00 in0.0 mm 0.00 in0.0 mm 0.00 in0.0 mm
05:00 AM 29.8°F-1.2°C 28.9°F-1.7°C 96% 2.2 mph S3.5 kmh S 6.9 mph11.1 kmh 30.14 in1020.7 mb 0.00 in0.0 mm 0.00 in0.0 mm 0.00 in0.0 mm
04:45 AM 29.8°F-1.2°C 28.9°F-1.7°C 96% 3.8 mph S6.1 kmh S 7.6 mph12.2 kmh 30.14 in1020.7 mb 0.00 in0.0 mm 0.00 in0.0 mm 0.00 in0.0 mm
04:30 AM 30.0°F-1.1°C 28.8°F-1.8°C 95% 3.8 mph S6.1 kmh S 6.0 mph9.7 kmh 30.14 in1020.7 mb 0.00 in0.0 mm 0.00 in0.0 mm 0.00 in0.0 mm
04:15 AM 30.4°F-0.9°C 29.1°F-1.6°C 95% 2.2 mph S3.5 kmh S 7.6 mph12.2 kmh 30.14 in1020.7 mb 0.00 in0.0 mm 0.00 in0.0 mm 0.00 in0.0 mm
04:00 AM 30.4°F-0.9°C 29.1°F-1.6°C 95% 3.1 mph S5.0 kmh S 6.9 mph11.1 kmh 30.13 in1020.3 mb 0.00 in0.0 mm 0.00 in0.0 mm 0.00 in0.0 mm
03:45 AM 30.4°F-0.9°C 29.1°F-1.6°C 95% 3.8 mph S6.1 kmh S 6.9 mph11.1 kmh 30.14 in1020.7 mb 0.00 in0.0 mm 0.00 in0.0 mm 0.00 in0.0 mm
03:30 AM 30.2°F-1.0°C 29.0°F-1.7°C 95% 3.1 mph S5.0 kmh S 7.6 mph12.2 kmh 30.14 in1020.7 mb 0.00 in0.0 mm 0.00 in0.0 mm 0.00 in0.0 mm
03:15 AM 30.0°F-1.1°C 28.8°F-1.8°C 95% 4.5 mph S7.2 kmh S 7.6 mph12.2 kmh 30.15 in1021.0 mb 0.00 in0.0 mm 0.00 in0.0 mm 0.00 in0.0 mm
03:00 AM 30.0°F-1.1°C 28.8°F-1.8°C 95% 2.2 mph S3.5 kmh S 7.6 mph12.2 kmh 30.16 in1021.3 mb 0.00 in0.0 mm 0.00 in0.0 mm 0.00 in0.0 mm
02:45 AM 30.0°F-1.1°C 28.5°F-1.9°C 94% 2.2 mph S3.5 kmh S 7.6 mph12.2 kmh 30.16 in1021.3 mb 0.00 in0.0 mm 0.00 in0.0 mm 0.00 in0.0 mm
02:30 AM 30.2°F-1.0°C 29.0°F-1.7°C 95% 2.2 mph S3.5 kmh S 6.9 mph11.1 kmh 30.16 in1021.3 mb 0.00 in0.0 mm 0.00 in0.0 mm 0.00 in0.0 mm
02:15 AM 30.0°F-1.1°C 28.5°F-1.9°C 94% 2.2 mph S3.5 kmh S 6.9 mph11.1 kmh 30.15 in1021.0 mb 0.00 in0.0 mm 0.00 in0.0 mm 0.00 in0.0 mm
02:00 AM 30.0°F-1.1°C 28.5°F-1.9°C 94% 2.2 mph S3.5 kmh S 6.9 mph11.1 kmh 30.16 in1021.3 mb 0.00 in0.0 mm 0.00 in0.0 mm 0.00 in0.0 mm
01:45 AM 30.2°F-1.0°C 28.4°F-2.0°C 93% 3.1 mph S5.0 kmh S 5.4 mph8.7 kmh 30.15 in1021.0 mb 0.00 in0.0 mm 0.00 in0.0 mm 0.00 in0.0 mm
01:30 AM 30.4°F-0.9°C 28.6°F-1.9°C 93% 3.8 mph S6.1 kmh S 6.0 mph9.7 kmh 30.15 in1021.0 mb 0.00 in0.0 mm 0.00 in0.0 mm 0.00 in0.0 mm
01:15 AM 30.2°F-1.0°C 28.4°F-2.0°C 93% 3.8 mph S6.1 kmh S 6.0 mph9.7 kmh 30.14 in1020.7 mb 0.00 in0.0 mm 0.00 in0.0 mm 0.00 in0.0 mm
01:00 AM 30.4°F-0.9°C 28.3°F-2.1°C 92% 3.1 mph S5.0 kmh S 6.0 mph9.7 kmh 30.14 in1020.7 mb 0.00 in0.0 mm 0.00 in0.0 mm 0.00 in0.0 mm
12:45 AM 30.6°F-0.8°C 28.5°F-1.9°C 92% 3.1 mph S5.0 kmh S 7.6 mph12.2 kmh 30.14 in1020.7 mb 0.00 in0.0 mm 0.00 in0.0 mm 0.00 in0.0 mm
12:30 AM 30.9°F-0.6°C 28.9°F-1.7°C 92% 2.2 mph S3.5 kmh S 6.9 mph11.1 kmh 30.14 in1020.7 mb 0.00 in0.0 mm 0.00 in0.0 mm 0.00 in0.0 mm
12:15 AM 31.3°F-0.4°C 29.2°F-1.6°C 92% 1.6 mph S2.6 kmh S 5.4 mph8.7 kmh 30.14 in1020.7 mb 0.00 in0.0 mm 0.00 in0.0 mm 0.00 in0.0 mm
12:00 AM 31.3°F-0.4°C 29.0°F-1.7°C 91% 3.1 mph S5.0 kmh S 6.0 mph9.7 kmh 30.15 in1021.0 mb 0.00 in0.0 mm 0.00 in0.0 mm 0.00 in0.0 mm